Tiempo atmosférico en la estación meteorológica de Navasfrías, Salamanca (880 m.)



Fecha
DESCASC
Temp. máxima en grados centígrados (hora)
DESCASC
Temp. mínima en grados centígrados (hora)
DESCASC
Temp. media en grados centígrados
DESCASC
Racha de viento máxima en m/sg (hora)
DESCASC
Velocidad máxima media en intervalos de 10 minutos(hora)
DESCASC
Precipitaciones diarias en mm
DESCASC
Precipitaciones de 00:00 a 06:00 en mm
DESCASC
Precipitaciones de 06:00 a 12:00 en mm
DESCASC
Precipitaciones de 12:00 a 18:00 en mm
DESCASC
Precipitaciones de 18:00 a 24:00 en mm
DESCASC
26-01-2021 14.1 (17:00) 9.2 (00:00) 11.7 5 (17:40) 2.78 (14:50) 0.2 0 0 0.2 0
25-01-2021 13.1 (14:30) 7.4 (00:00) 10.3 12.22 (03:50) 6.94 (03:40) 2.4 1.2 1.2 0 0
24-01-2021 8.5 (13:40) 0.3 (00:00) 4.4 7.5 (05:30) 3.33 (22:00) 0 0 0 0 0
23-01-2021 11.1 (21:40) 2.6 (00:00) 6.9 12.78 (13:40) 7.5 (13:40) 11.4 0 2.2 6.4 2.8
22-01-2021 8.8 (01:40) 0.1 (00:00) 4.5 18.89 (03:00) 10 (02:00) 17 3.2 8 5.8 0
21-01-2021 9.3 (19:40) 6.5 (00:00) 7.9 17.22 (23:59) 9.17 (23:40) 15 0.6 3 8.8 2.6
20-01-2021 8.5 (16:30) 5 (00:00) 6.8 20.28 (03:10) 8.89 (03:10) 53.2 15 16.6 18.2 3.4
19-01-2021 7.5 (14:40) -3.9 (-00:0) 1.8 13.33 (23:50) 7.5 (23:59) 0 0 0 0 0
18-01-2021 14.1 (14:40) -5.7 (-00:0) 4.2 4.44 (13:40) 2.5 (17:20) 0 0 0 0 0
17-01-2021 13.6 (16:10) -7.2 (-00:0) 3.2 4.72 (13:50) 2.5 (15:10) 0 0 0 0 0
16-01-2021 13.1 (15:30) -7.9 (-00:0) 2.6 3.89 (15:40) 1.94 (15:20) 0 0 0 0 0
15-01-2021 9.3 (16:00) -6.2 (-00:0) 1.6 6.11 (15:30) 2.78 (12:10) 0 0 0 0 0
14-01-2021 9.6 (16:30) -7.3 (07:50) 1.2 5.56 (17:10) 3.33 (13:40) 0 0 0 0 0
13-01-2021 10.6 (15:40) -7.9 (-00:0) 1.4 5.56 (15:50) 2.5 (16:50) 0 0 0 0 0
12-01-2021 8.1 (13:30) -8.8 (-00:0) -0.3 4.44 (14:10) 2.22 (14:10) 0 0 0 0 0
11-01-2021 3.5 (13:20) -6.6 (-00:0) -1.5 10.56 (12:30) 4.44 (12:20) 0 0 0 0 0
10-01-2021 2.7 (16:00) -2.5 (06:20) 0.1 10.56 (16:40) 4.17 (16:40) 0 0 0 0 0
09-01-2021 -1.4 (14:40) -3 (-00:0) -2.2 9.72 (12:20) 3.61 (04:20) 0 0 0 0 0
08-01-2021 0.3 (15:10) -9.1 (-00:0) -4.4 7.78 (14:50) 3.33 (12:20) 0 0 0 0 0
07-01-2021 3.8 (16:00) -6.9 (-00:0) -1.6 3.89 (14:50) 2.22 (16:50) 0 0 0 0 0
06-01-2021 5.2 (15:20) -8.8 (-00:0) -1.8 5.28 (16:10) 2.22 (15:00) 0 0 0 0 0
05-01-2021 6 (16:00) -8.6 (-00:0) -1.3 3.61 (16:10) 1.67 (16:10) 0 0 0 0 0
04-01-2021 4.9 (14:40) -4.9 (-00:0) 0 6.11 (00:30) 3.06 (14:20) 0 0 0 0 0
03-01-2021 5.1 (15:40) -7.2 (-00:0) -1 7.78 (15:20) 4.17 (15:20) 0 0 0 0 0
02-01-2021 4.3 (16:30) -4.8 (-00:0) -0.3 7.78 (12:20) 3.33 (12:40) 0 0 0 0 0
01-01-2021 3.9 (16:30) -1.5 (-00:0) 1.2 8.89 (15:00) 4.17 (14:40) 0 0 0 0 0
31-12-2020 6.4 (16:20) -3.7 (-00:0) 1.4 8.33 (21:10) 4.17 (21:50) 1 0 0 0.4 0.6
30-12-2020 5.7 (15:00) -4 (-00:0) 0.8 9.17 (14:40) 3.61 (14:40) 0 0 0 0 0
29-12-2020 5.4 (14:40) -0.5 (-00:0) 2.5 8.89 (12:30) 5 (14:10) 0.2 0 0.2 0 0
28-12-2020 7.3 (03:50) 1.8 (00:00) 4.6 12.78 (00:20) 5.83 (00:20) 1.6 1 0.6 0 0

Gráficas

Temp. máximas Temp. mínimas Temp. medias Precipitaciones Rachas de viento máximas Velocidades máximas media en intervalos de 10 minutos

Datos horarios

Fecha y hora oficial Temperatura (ºC) Velocidad del viento (km/h) Dirección del viento Racha (km/h) Dirección de racha Precipitación (mm) Presión (hPa) Tendencia (hPa) Humedad (%)
2021-01-26 23:00:00 12 3 Norte 7 Oeste 0 -- -- 97
2021-01-26 22:00:00 11.9 4 Noroeste 8 Oeste 0 -- -- 97
2021-01-26 21:00:00 12.6 2 Sur 11 Noroeste 0 -- -- 96
2021-01-26 20:00:00 12.9 3 Oeste 14 Oeste 0 -- -- 94
2021-01-26 19:00:00 13.3 8 Oeste 17 Oeste 0 -- -- 93
2021-01-26 18:00:00 13.6 5 Oeste 18 Oeste 0 -- -- 93
2021-01-26 17:00:00 14.1 7 Oeste 16 Oeste 0 -- -- 92
2021-01-26 16:00:00 13.2 4 Sudoeste 15 Sudoeste 0.2 -- -- 95
2021-01-26 15:00:00 13.1 9 Sudoeste 17 Sudoeste 0 -- -- 94
2021-01-26 14:00:00 13.2 8 Sudoeste 17 Sudoeste 0 -- -- 94
2021-01-26 13:00:00 13.2 5 Sudoeste 13 Sudoeste 0 -- -- 94
2021-01-26 12:00:00 12.4 5 Sudoeste 18 Sudoeste 0 -- -- 95
2021-01-26 11:00:00 11.8 5 Sudoeste 14 Sudoeste 0 -- -- 94
2021-01-26 10:00:00 10.8 4 Sudeste 10 Sur 0 -- -- 99
2021-01-26 09:00:00 9.8 2 Sudeste 9 Sudeste 0 -- -- 99
2021-01-26 08:00:00 10 3 Sur 9 Sur 0 -- -- 100
2021-01-26 07:00:00 9.8 4 Sur 12 Sudoeste 0 -- -- 100
2021-01-26 06:00:00 9.9 4 Sur 12 Sur 0 -- -- 100
2021-01-26 05:00:00 9.8 3 Sur 10 Sur 0 -- -- 100
2021-01-26 04:00:00 9.3 2 Sudoeste 5 Sudoeste 0 -- -- 100
2021-01-26 03:00:00 9.9 0 Calma 9 Oeste 0 -- -- 99
2021-01-26 02:00:00 10.3 4 Oeste 9 Oeste 0 -- -- 99
2021-01-26 01:00:00 10.3 0 Calma 10 Sudoeste 0 -- -- 98
2021-01-26 00:00:00 10.4 2 Sudoeste 14 Oeste 0 -- -- 97
2021-01-25 23:00:00 10.8 7 Oeste 13 Sudoeste 0 -- -- 96
2021-01-25 22:00:00 10.9 0 Calma 10 Oeste 0 -- -- 97
2021-01-25 21:00:00 11.1 3 Oeste 14 Oeste 0 -- -- 95
2021-01-25 20:00:00 11.1 4 Oeste 15 Oeste 0 -- -- 94
2021-01-25 19:00:00 11.4 6 Oeste 14 Oeste 0 -- -- 91
2021-01-25 18:00:00 12 4 Oeste 15 Noroeste 0 -- -- 88
2021-01-25 17:00:00 12.2 11 Noroeste 29 Noroeste 0 -- -- 87
2021-01-25 16:00:00 12.3 12 Oeste 31 Oeste 0 -- -- 88
2021-01-25 15:00:00 12.7 13 Oeste 27 Oeste 0 -- -- 89
2021-01-25 14:00:00 12.8 11 Sudoeste 26 Oeste 0 -- -- 90
2021-01-25 13:00:00 11.2 8 Sudoeste 24 Oeste 0 -- -- 96
2021-01-25 12:00:00 10.6 9 Sudoeste 21 Sudoeste 0 -- -- 97
2021-01-25 11:00:00 10.2 6 Sudoeste 25 Oeste 0 -- -- 98
2021-01-25 10:00:00 9.8 10 Sudoeste 31 Sudoeste 0.2 -- -- 100
2021-01-25 09:00:00 9.2 14 Sudoeste 31 Sur 0.2 -- -- 100
2021-01-25 08:00:00 9 14 Sur 32 Sur 0.4 -- -- 100
2021-01-25 07:00:00 8.7 15 Sudoeste 35 Sur 0.4 -- -- 100
2021-01-25 06:00:00 8.6 19 Sudoeste 39 Sur 0.2 -- -- 100
2021-01-25 05:00:00 8.5 23 Sudoeste 41 Sudoeste 0.2 -- -- 100
2021-01-25 04:00:00 8.3 24 Sudoeste 44 Sudoeste 0.2 -- -- 100
2021-01-25 03:00:00 8 15 Sudoeste 39 Sudoeste 0.4 -- -- 100
2021-01-25 02:00:00 7.8 19 Sudoeste 38 Sudoeste 0 -- -- 100
2021-01-25 01:00:00 7.6 16 Sudoeste 31 Sudoeste 0.2 -- -- 100
2021-01-25 00:00:00 7.4 11 Sur 21 Sudoeste 0 -- -- 100
2021-01-24 23:00:00 7.4 11 Sur 26 Sur 0 -- -- 98
2021-01-24 22:00:00 7.5 12 Sudoeste 22 Sudoeste 0 -- -- 95
2021-01-24 21:00:00 7.5 7 Sudoeste 16 Sur 0 -- -- 94
2021-01-24 20:00:00 7.7 7 Sudoeste 15 Sur 0 -- -- 93
2021-01-24 19:00:00 7.6 3 Sur 10 Sudoeste 0 -- -- 93
2021-01-24 18:00:00 7.8 5 Sudoeste 14 Sudoeste 0 -- -- 90
2021-01-24 17:00:00 8.3 8 Sur 15 Sur 0 -- -- 83
2021-01-24 16:00:00 8.3 6 Sudoeste 13 Sudoeste 0 -- -- 83
2021-01-24 15:00:00 7.9 5 Sudoeste 17 Sudoeste 0 -- -- 81
2021-01-24 14:00:00 8.4 6 Sudoeste 13 Oeste 0 -- -- 78
2021-01-24 13:00:00 8 5 Sur 13 Oeste 0 -- -- 73
2021-01-24 12:00:00 6.8 6 Noroeste 13 Oeste 0 -- -- 81
2021-01-24 11:00:00 4.9 0 Calma 5 Oeste 0 -- -- 100
2021-01-24 10:00:00 1.1 0 Calma 4 Sur 0 -- -- 100
2021-01-24 09:00:00 0.3 0 Calma 5 Sur 0 -- -- 99
2021-01-24 08:00:00 1.6 0 Calma 6 Este 0 -- -- 95
2021-01-24 07:00:00 4.4 0 Calma 17 Norte 0 -- -- 91
2021-01-24 06:00:00 5.7 9 Noroeste 27 Noroeste 0 -- -- 86
2021-01-24 05:00:00 4.6 5 Norte 18 Norte 0 -- -- 94
2021-01-24 04:00:00 2.2 2 Sudoeste 5 Oeste 0 -- -- 100
2021-01-24 03:00:00 3.1 0 Calma 5 Sur 0 -- -- 99
2021-01-24 02:00:00 3.6 3 Sur 6 Sur 0 -- -- 98
2021-01-24 01:00:00 5.3 2 Sudoeste 22 Noroeste 0 -- -- 91
2021-01-24 00:00:00 7.7 6 Noroeste 21 Noroeste 0 -- -- 79
2021-01-23 23:00:00 9.4 5 Sudoeste 35 Oeste 0 -- -- 88
2021-01-23 22:00:00 11 17 Oeste 37 Oeste 0 -- -- 86
2021-01-23 21:00:00 10.9 12 Oeste 34 Sudoeste 0 -- -- 94
2021-01-23 20:00:00 10.8 13 Sudoeste 39 Oeste 0 -- -- 95
2021-01-23 19:00:00 10.4 13 Sudoeste 33 Sudoeste 2.8 -- -- 98
2021-01-23 18:00:00 9.6 16 Sudoeste 37 Sudoeste 1 -- -- 100
2021-01-23 17:00:00 9.1 20 Sur 36 Sudoeste 2.8 -- -- 99
2021-01-23 16:00:00 8.6 17 Sur 35 Sur 1.4 -- -- 98
2021-01-23 15:00:00 8.2 24 Sudoeste 40 Sur 0.2 -- -- 98
2021-01-23 14:00:00 7.4 25 Sudoeste 46 Sudoeste 0.6 -- -- 98
2021-01-23 13:00:00 6.7 22 Sudoeste 45 Sudoeste 0.4 -- -- 100
2021-01-23 12:00:00 5.8 19 Sudoeste 38 Sudoeste 1.8 -- -- 100
2021-01-23 11:00:00 5 15 Sudoeste 36 Sudoeste 0.4 -- -- 100
2021-01-23 10:00:00 4.5 14 Sudoeste 32 Sudoeste 0 -- -- 100
2021-01-23 09:00:00 4.4 7 Sudoeste 26 Sudoeste 0 -- -- 100
2021-01-23 08:00:00 4.3 10 Sudoeste 30 Sur 0 -- -- 100
2021-01-23 07:00:00 4 10 Sur 21 Sur 0 -- -- 100
2021-01-23 06:00:00 3.7 9 Sudoeste 24 Sur 0 -- -- 100
2021-01-23 05:00:00 3.7 10 Sudoeste 18 Sudoeste 0 -- -- 97
2021-01-23 04:00:00 3.6 6 Sudoeste 17 Sudoeste 0 -- -- 96
2021-01-23 03:00:00 3.7 6 Sudoeste 22 Sudoeste 0 -- -- 100
2021-01-23 02:00:00 3.4 9 Sudoeste 17 Sudoeste 0 -- -- 98
2021-01-23 01:00:00 3.3 11 Sudoeste 23 Sudoeste 0 -- -- 97
2021-01-23 00:00:00 2.7 2 Sudoeste 13 Sudoeste 0 -- -- 95
2021-01-22 23:00:00 2.7 3 Sudoeste 14 Oeste 0 -- -- 95
2021-01-22 22:00:00 1.4 3 Oeste 10 Oeste 0 -- -- 99
2021-01-22 21:00:00 0.5 2 Sur 9 Sudoeste 0 -- -- 96
2021-01-22 20:00:00 2.3 5 Sur 19 Oeste 0 -- -- 90
2021-01-22 19:00:00 4.4 2 Sudoeste 13 Oeste 0 -- -- 84
2021-01-22 18:00:00 5.9 5 Oeste 29 Oeste 0 -- -- 77
2021-01-22 17:00:00 6.6 10 Noroeste 26 Noroeste 0 -- -- 81
2021-01-22 16:00:00 6 13 Oeste 33 Oeste 0 -- -- 83
2021-01-22 15:00:00 5.7 13 Oeste 32 Oeste 0 -- -- 87
2021-01-22 14:00:00 4.5 14 Oeste 31 Noroeste 0.8 -- -- 95
2021-01-22 13:00:00 3 9 Noroeste 37 Oeste 5 -- -- 97
2021-01-22 12:00:00 4.8 10 Oeste 30 Noroeste 2.6 -- -- 94
2021-01-22 11:00:00 5.3 7 Sudoeste 22 Sudoeste 0.4 -- -- 96
2021-01-22 10:00:00 4.6 6 Sudoeste 25 Oeste 0.6 -- -- 96
2021-01-22 09:00:00 4.8 12 Oeste 31 Oeste 2.2 -- -- 94
2021-01-22 08:00:00 4.9 10 Sudoeste 30 Oeste 1.6 -- -- 95
2021-01-22 07:00:00 4.6 9 Sudoeste 32 Oeste 0.6 -- -- 92
2021-01-22 06:00:00 4.7 17 Oeste 53 Oeste 2.2 -- -- 92
2021-01-22 05:00:00 7 16 Oeste 41 Sudoeste 0 -- -- 80
2021-01-22 04:00:00 7.8 16 Sudoeste 60 Sudoeste 0.2 -- -- 90
2021-01-22 03:00:00 8.6 22 Sudoeste 68 Sur 0.4 -- -- 97
2021-01-22 02:00:00 8.7 36 Sudoeste 67 Sudoeste 0.4 -- -- 100
2021-01-22 01:00:00 8.7 28 Sudoeste 59 Sudoeste 0 -- -- 100
2021-01-22 00:00:00 8.7 32 Sudoeste 62 Sur 0 -- -- 97
2021-01-21 23:00:00 8.6 21 Sudoeste 55 Sudoeste 0 -- -- 99
2021-01-21 22:00:00 8.8 17 Sudoeste 46 Sudoeste 0 -- -- 98
2021-01-21 21:00:00 9 14 Sudoeste 33 Sur 0 -- -- 98
2021-01-21 20:00:00 9.2 9 Sudoeste 28 Sudoeste 0.6 -- -- 100
2021-01-21 19:00:00 9.1 18 Sudoeste 39 Sudoeste 2 -- -- 100
2021-01-21 18:00:00 8.9 19 Sur 40 Sudoeste 3.6 -- -- 100
2021-01-21 17:00:00 8.7 21 Sur 50 Sudoeste 1.8 -- -- 100
2021-01-21 16:00:00 8.5 21 Sudoeste 49 Sudoeste 1.2 -- -- 100
2021-01-21 15:00:00 8.7 23 Sudoeste 54 Sudoeste 1.4 -- -- 100
2021-01-21 14:00:00 8.3 26 Sudoeste 48 Sudoeste 0.6 -- -- 100
2021-01-21 13:00:00 7.9 23 Sudoeste 48 Sudoeste 0.2 -- -- 100
2021-01-21 12:00:00 7.9 26 Sudoeste 46 Sudoeste 1.8 -- -- 100
2021-01-21 11:00:00 7.5 25 Sur 41 Sur 0.6 -- -- 100
2021-01-21 10:00:00 7 22 Sudoeste 46 Sur 0 -- -- 100
2021-01-21 09:00:00 6.8 22 Sudoeste 43 Sudoeste 0.6 -- -- 100
2021-01-21 08:00:00 6.8 13 Sudoeste 33 Sudoeste 0 -- -- 100
2021-01-21 07:00:00 6.5 15 Sudoeste 29 Sudoeste 0 -- -- 100
2021-01-21 06:00:00 6.5 10 Sur 26 Sudoeste 0 -- -- 100
2021-01-21 05:00:00 6.7 11 Sudoeste 23 Sudoeste 0 -- -- 100
2021-01-21 04:00:00 7 8 Sudoeste 20 Sudoeste 0 -- -- 98
2021-01-21 03:00:00 7.1 3 Sur 18 Sudoeste 0 -- -- 99
2021-01-21 02:00:00 7.3 3 Sudoeste 22 Sudoeste 0.4 -- -- 98
2021-01-21 01:00:00 7.3 9 Sudoeste 19 Sudoeste 0.2 -- -- 96
2021-01-21 00:00:00 7.4 9 Sudoeste 25 Sudoeste 0.2 -- -- 99
2021-01-20 23:00:00 7.3 12 Sudoeste 31 Sudoeste 0.4 -- -- 100
2021-01-20 22:00:00 7 13 Sur 31 Sur 0.2 -- -- 100
2021-01-20 21:00:00 7.1 17 Sudoeste 36 Sudoeste 0 -- -- 99
2021-01-20 20:00:00 7.7 12 Sudoeste 47 Sudoeste 1.4 -- -- 95
2021-01-20 19:00:00 7.8 11 Sudoeste 32 Oeste 1.2 -- -- 95
2021-01-20 18:00:00 7.8 14 Sudoeste 41 Sur 8.2 -- -- 94
2021-01-20 17:00:00 8.4 17 Sudoeste 50 Sur 1.8 -- -- 97
2021-01-20 16:00:00 8.4 21 Sudoeste 42 Sur 0.8 -- -- 99
2021-01-20 15:00:00 8.2 19 Sudoeste 42 Sudoeste 0.8 -- -- 100
2021-01-20 14:00:00 7.9 26 Sudoeste 44 Sur 3 -- -- 99
2021-01-20 13:00:00 7.5 19 Sur 37 Sur 3.6 -- -- 100
2021-01-20 12:00:00 7 19 Sur 40 Sudoeste 4.2 -- -- 100
2021-01-20 11:00:00 6.2 22 Sur 40 Sur 1.8 -- -- 100
2021-01-20 10:00:00 6 22 Sur 41 Sur 1.6 -- -- 100
2021-01-20 09:00:00 5.5 20 Sur 44 Sur 0.4 -- -- 100
2021-01-20 08:00:00 5 23 Sur 51 Sur 1.8 -- -- 99
2021-01-20 07:00:00 5.5 26 Sur 54 Sudoeste 6.8 -- -- 97
2021-01-20 06:00:00 5.4 30 Sur 64 Sur 8.2 -- -- 97
2021-01-20 05:00:00 5.2 25 Sur 54 Sur 5.8 -- -- 98
2021-01-20 04:00:00 5.1 27 Sur 73 Sur 1 -- -- 97
2021-01-20 03:00:00 5.4 30 Sur 59 Sur 0 -- -- 92
2021-01-20 02:00:00 5.2 27 Sur 49 Sur 0 -- -- 91
2021-01-20 01:00:00 5.1 23 Sur 45 Sur 0 -- -- 93
2021-01-20 00:00:00 5.3 27 Sur 48 Sur 0 -- -- 91
2021-01-19 23:00:00 5.3 23 Sur 48 Sur 0 -- -- 89
2021-01-19 22:00:00 5.7 22 Sur 46 Sur 0 -- -- 87
2021-01-19 21:00:00 5.8 19 Sur 47 Sur 0 -- -- 86
2021-01-19 20:00:00 5.5 22 Sur 45 Sur 0 -- -- 86
2021-01-19 19:00:00 5.5 17 Sur 39 Sudoeste 0 -- -- 84
2021-01-19 18:00:00 5.6 9 Sudeste 35 Sudeste 0 -- -- 84
2021-01-19 17:00:00 5.8 8 Sudeste 26 Sudeste 0 -- -- 85
2021-01-19 16:00:00 6.4 11 Sur 32 Sur 0 -- -- 80
2021-01-19 15:00:00 7.4 13 Sur 31 Sudoeste 0 -- -- 76
2021-01-19 14:00:00 6.8 12 Sur 32 Sur 0 -- -- 71
2021-01-19 13:00:00 7.1 13 Sur 25 Sudeste 0 -- -- 67
2021-01-19 12:00:00 6.8 11 Sur 23 Sudeste 0 -- -- 70
2021-01-19 11:00:00 5.8 14 Sudeste 22 Este 0 -- -- 73
2021-01-19 10:00:00 0.4 4 Sur 9 Sudeste 0 -- -- 96
2021-01-19 09:00:00 -3.9 0 Calma 4 Sur 0 -- -- 95
2021-01-19 08:00:00 -3.5 0 Calma 6 Sur 0 -- -- 91
2021-01-19 07:00:00 -2.3 4 Sudoeste 12 Sur 0 -- -- 91
2021-01-19 06:00:00 -1.3 4 Sudoeste 14 Este 0 -- -- 89
2021-01-19 05:00:00 0.3 8 Sur 15 Sur 0 -- -- 89
2021-01-19 04:00:00 -1.2 8 Sur 12 Sur 0 -- -- 91
2021-01-19 03:00:00 -1 5 Sur 11 Sur 0 -- -- 90
2021-01-19 02:00:00 -0.2 6 Sur 12 Sur 0 -- -- 90
2021-01-19 01:00:00 -2.9 0 Calma 6 Sur 0 -- -- 91
2021-01-19 00:00:00 -3.1 3 Sur 5 Sudoeste 0 -- -- 90
2021-01-18 23:00:00 -2.8 0 Calma 6 Sudoeste 0 -- -- 87
2021-01-18 22:00:00 -2.6 2 Sur 6 Sur 0 -- -- 86
2021-01-18 21:00:00 -1.9 3 Sur 5 Sur 0 -- -- 83
2021-01-18 20:00:00 -0.3 3 Sur 6 Sur 0 -- -- 80
2021-01-18 19:00:00 2.7 5 Sudoeste 7 Sur 0 -- -- 73
2021-01-18 18:00:00 9.8 5 Sur 13 Sudoeste 0 -- -- 53
2021-01-18 17:00:00 12.8 8 Sur 14 Sudoeste 0 -- -- 48
2021-01-18 16:00:00 13.7 7 Sudoeste 13 Sudoeste 0 -- -- 37
2021-01-18 15:00:00 13.6 8 Sudoeste 15 Sudoeste 0 -- -- 40
2021-01-18 14:00:00 13.5 5 Sudoeste 16 Sudoeste 0 -- -- 37
2021-01-18 13:00:00 12.2 3 Noroeste 6 Norte 0 -- -- 42
2021-01-18 12:00:00 9.1 0 Calma 2 Nordeste 0 -- -- 68
2021-01-18 11:00:00 3.1 0 Calma 3 Sur 0 -- -- 85
2021-01-18 10:00:00 -3.7 2 Sur 4 Sudoeste 0 -- -- 100
2021-01-18 09:00:00 -5.6 2 Sudoeste 3 Sudoeste 0 -- -- 96
2021-01-18 08:00:00 -4.8 0 Calma 4 Sudoeste 0 -- -- 98
2021-01-18 07:00:00 -5 2 Sur 3 Sudoeste 0 -- -- 96
2021-01-18 06:00:00 -4.6 0 Calma 3 Sur 0 -- -- 96
2021-01-18 05:00:00 -4.5 2 Sur 3 Sur 0 -- -- 95
2021-01-18 04:00:00 -4 0 Calma 4 Sudoeste 0 -- -- 95
2021-01-18 03:00:00 -3.9 2 Sudoeste 4 Sudoeste 0 -- -- 94
2021-01-18 02:00:00 -3.5 2 Sur 4 Sudoeste 0 -- -- 93
2021-01-18 01:00:00 -3.5 3 Sudoeste 5 Sudoeste 0 -- -- 91
2021-01-18 00:00:00 -2.9 3 Sudoeste 5 Sudoeste 0 -- -- 90
2021-01-17 23:00:00 -2.8 2 Sudoeste 4 Sur 0 -- -- 89
2021-01-17 22:00:00 -2.5 2 Sudoeste 5 Sudoeste 0 -- -- 84
2021-01-17 21:00:00 -1.9 2 Sudoeste 4 Sur 0 -- -- 81
2021-01-17 20:00:00 -0.5 3 Sur 5 Sur 0 -- -- 74
2021-01-17 19:00:00 2.6 4 Sur 6 Sur 0 -- -- 62
2021-01-17 18:00:00 10.3 0 Calma 11 Norte 0 -- -- 37
2021-01-17 17:00:00 13.2 4 Norte 13 Norte 0 -- -- 32
2021-01-17 16:00:00 13.5 6 Norte 16 Norte 0 -- -- 23
2021-01-17 15:00:00 13.4 6 Norte 17 Norte 0 -- -- 17
2021-01-17 14:00:00 13.2 7 Norte 17 Norte 0 -- -- 18
2021-01-17 13:00:00 12.1 3 Nordeste 6 Este 0 -- -- 26
2021-01-17 12:00:00 8.5 2 Noroeste 4 Noroeste 0 -- -- 44
2021-01-17 11:00:00 2.3 2 Sur 3 Sudoeste 0 -- -- 77
2021-01-17 10:00:00 -4.8 2 Sur 3 Sudoeste 0 -- -- 91
2021-01-17 09:00:00 -7.2 2 Sur 4 Sur 0 -- -- 89
2021-01-17 08:00:00 -6.4 0 Calma 3 Sur 0 -- -- 90
2021-01-17 07:00:00 -6.2 3 Sudoeste 4 Sur 0 -- -- 90
2021-01-17 06:00:00 -6 3 Sur 4 Sudoeste 0 -- -- 90
2021-01-17 05:00:00 -5.7 2 Sudoeste 4 Sur 0 -- -- 91
2021-01-17 04:00:00 -5.4 2 Sur 4 Sur 0 -- -- 91
2021-01-17 03:00:00 -4.9 3 Sur 4 Sur 0 -- -- 93
2021-01-17 02:00:00 -4.7 2 Sudoeste 4 Sur 0 -- -- 94
2021-01-17 01:00:00 -4.2 3 Sudoeste 4 Sur 0 -- -- 94
2021-01-17 00:00:00 -4 2 Sur 3 Sur 0 -- -- 92
2021-01-16 23:00:00 -3.6 2 Sudoeste 4 Sur 0 -- -- 90
2021-01-16 22:00:00 -2.8 0 Calma 4 Sudoeste 0 -- -- 89
2021-01-16 21:00:00 -2.1 2 Sur 4 Sur 0 -- -- 83
2021-01-16 20:00:00 -0.9 3 Sur 6 Sur 0 -- -- 78
2021-01-16 19:00:00 2.3 3 Sur 6 Sudoeste 0 -- -- 65
2021-01-16 18:00:00 9 4 Norte 9 Norte 0 -- -- 47
2021-01-16 17:00:00 12.7 4 Norte 13 Noroeste 0 -- -- 30
2021-01-16 16:00:00 13 4 Norte 14 Norte 0 -- -- 32
2021-01-16 15:00:00 12.5 4 Norte 9 Norte 0 -- -- 29
2021-01-16 14:00:00 11.3 4 Norte 10 Nordeste 0 -- -- 35
2021-01-16 13:00:00 9.8 3 Norte 11 Nordeste 0 -- -- 48
2021-01-16 12:00:00 5.2 0 Calma 3 Sur 0 -- -- 81
2021-01-16 11:00:00 0.2 0 Calma 2 Sur 0 -- -- 91
2021-01-16 10:00:00 -6 0 Calma 2 Sur 0 -- -- 99
2021-01-16 09:00:00 -7.8 0 Calma 2 Sudoeste 0 -- -- 95
2021-01-16 08:00:00 -7.5 0 Calma 2 Sudoeste 0 -- -- 95
2021-01-16 07:00:00 -7.7 0 Calma 2 Sur 0 -- -- 94
2021-01-16 06:00:00 -7.5 0 Calma 0 Calma 0 -- -- 95
2021-01-16 05:00:00 -7.3 0 Calma 2 Sur 0 -- -- 94
2021-01-16 04:00:00 -6.7 0 Calma 2 Sur 0 -- -- 95
2021-01-16 03:00:00 -5.9 0 Calma 3 Sur 0 -- -- 98
2021-01-16 02:00:00 -5.2 0 Calma 4 Sur 0 -- -- 98
2021-01-16 01:00:00 -4.7 0 Calma 2 Sur 0 -- -- 96
2021-01-16 00:00:00 -5 0 Calma 2 Sudoeste 0 -- -- 92
2021-01-15 23:00:00 -3.6 0 Calma 4 Sudoeste 0 -- -- 92
2021-01-15 22:00:00 -2.8 2 Sur 6 Sur 0 -- -- 93
2021-01-15 21:00:00 -2.3 0 Calma 6 Sur 0 -- -- 90
2021-01-15 20:00:00 -1 2 Sur 5 Sur 0 -- -- 82
2021-01-15 19:00:00 3.3 0 Calma 8 Norte 0 -- -- 68
2021-01-15 18:00:00 7.2 3 Norte 21 Norte 0 -- -- 57
2021-01-15 17:00:00 9 9 Norte 20 Norte 0 -- -- 53
2021-01-15 16:00:00 9.3 5 Norte 22 Norte 0 -- -- 56
2021-01-15 15:00:00 8.7 9 Norte 22 Norte 0 -- -- 55
2021-01-15 14:00:00 8.8 5 Norte 20 Norte 0 -- -- 55
2021-01-15 13:00:00 7.3 8 Norte 18 Noroeste 0 -- -- 63
2021-01-15 12:00:00 7 9 Norte 19 Norte 0 -- -- 66
2021-01-15 11:00:00 2.7 2 Sur 4 Sur 0 -- -- 89
2021-01-15 10:00:00 -3.7 2 Sur 5 Sudoeste 0 -- -- 99
2021-01-15 09:00:00 -5.8 2 Sudoeste 4 Sudoeste 0 -- -- 95
2021-01-15 08:00:00 -6.2 2 Sur 3 Sur 0 -- -- 94
2021-01-15 07:00:00 -6 0 Calma 3 Sudoeste 0 -- -- 93
2021-01-15 06:00:00 -5.7 0 Calma 3 Sudoeste 0 -- -- 93
2021-01-15 05:00:00 -5.6 2 Sur 4 Sur 0 -- -- 93
2021-01-15 04:00:00 -5.4 2 Sur 4 Sur 0 -- -- 94
2021-01-15 03:00:00 -5.1 2 Sur 3 Sudoeste 0 -- -- 93
2021-01-15 02:00:00 -4.8 0 Calma 4 Sudoeste 0 -- -- 95
2021-01-15 01:00:00 -4.3 2 Sudoeste 8 Sur 0 -- -- 95
2021-01-15 00:00:00 -4.8 0 Calma 4 Sudoeste 0 -- -- 93
2021-01-14 23:00:00 -4.1 2 Sur 5 Sudoeste 0 -- -- 91
2021-01-14 22:00:00 -3.2 3 Sur 6 Sur 0 -- -- 89
2021-01-14 21:00:00 -2.3 0 Calma 4 Sur 0 -- -- 86
2021-01-14 20:00:00 -0.3 0 Calma 9 Nordeste 0 -- -- 79
2021-01-14 19:00:00 2.7 3 Norte 11 Norte 0 -- -- 66
2021-01-14 18:00:00 6.3 6 Norte 20 Norte 0 -- -- 53
2021-01-14 17:00:00 8.9 11 Norte 19 Noroeste 0 -- -- 49
2021-01-14 16:00:00 9.5 5 Norte 15 Norte 0 -- -- 39
2021-01-14 15:00:00 8.8 10 Norte 17 Norte 0 -- -- 41
2021-01-14 14:00:00 7.6 8 Norte 19 Noroeste 0 -- -- 44
2021-01-14 13:00:00 6.6 7 Norte 15 Norte 0 -- -- 52
2021-01-14 12:00:00 4.5 5 Nordeste 14 Nordeste 0 -- -- 65
2021-01-14 11:00:00 0.5 0 Calma 3 Sudoeste 0 -- -- 91
2021-01-14 10:00:00 -5.5 0 Calma 3 Sudoeste 0 -- -- 100
2021-01-14 09:00:00 -7.3 2 Sudoeste 4 Sudoeste 0 -- -- 96
2021-01-14 08:00:00 -7.3 0 Calma 3 Sur 0 -- -- 96
2021-01-14 07:00:00 -7 2 Sudoeste 3 Sudoeste 0 -- -- 95
2021-01-14 06:00:00 -6.9 0 Calma 3 Sur 0 -- -- 95
2021-01-14 05:00:00 -6.8 2 Sur 4 Sudoeste 0 -- -- 95
2021-01-14 04:00:00 -6.4 2 Sudoeste 3 Sudoeste 0 -- -- 96
2021-01-14 03:00:00 -6.2 2 Sur 3 Sur 0 -- -- 94
2021-01-14 02:00:00 -5.5 2 Sur 4 Sur 0 -- -- 95
2021-01-14 01:00:00 -5.5 2 Sur 5 Sur 0 -- -- 93
2021-01-14 00:00:00 -5.3 2 Sudoeste 4 Sudoeste 0 -- -- 91
2021-01-13 23:00:00 -4.8 0 Calma 4 Sur 0 -- -- 90
2021-01-13 22:00:00 -4.2 2 Sur 3 Sur 0 -- -- 87
2021-01-13 21:00:00 -3.3 0 Calma 3 Sudoeste 0 -- -- 82
2021-01-13 20:00:00 -1.9 3 Sur 6 Sur 0 -- -- 76
2021-01-13 19:00:00 0.7 3 Sur 7 Sudoeste 0 -- -- 67
2021-01-13 18:00:00 7.7 3 Norte 14 Noroeste 0 -- -- 43
2021-01-13 17:00:00 10 5 Norte 18 Norte 0 -- -- 38
2021-01-13 16:00:00 10.6 8 Norte 20 Norte 0 -- -- 31
2021-01-13 15:00:00 10.1 6 Norte 15 Norte 0 -- -- 31
2021-01-13 14:00:00 9.6 5 Norte 14 Norte 0 -- -- 31
2021-01-13 13:00:00 8.2 3 Norte 9 Nordeste 0 -- -- 36
2021-01-13 12:00:00 6.4 3 Este 5 Sudeste 0 -- -- 45
2021-01-13 11:00:00 0.7 0 Calma 3 Sur 0 -- -- 80
2021-01-13 10:00:00 -5.7 2 Sur 4 Sur 0 -- -- 94
2021-01-13 09:00:00 -7.9 2 Sur 3 Sur 0 -- -- 92
2021-01-13 08:00:00 -7.7 2 Sur 3 Sur 0 -- -- 93
2021-01-13 07:00:00 -7.6 -- -- -- -- 0 -- -- 93
2021-01-13 06:00:00 -7.6 2 Sudoeste 4 Sur 0 -- -- 93
2021-01-13 05:00:00 -7.5 2 Sur 3 Sudoeste 0 -- -- 93
2021-01-13 04:00:00 -7.1 2 Sudoeste 5 Sudoeste 0 -- -- 94
2021-01-13 03:00:00 -7 2 Sudoeste 4 Sur 0 -- -- 93
2021-01-13 02:00:00 -6.7 0 Calma -- -- 0 -- -- 93
2021-01-13 01:00:00 -6.4 2 Sur 4 Sur 0 -- -- 93
2021-01-13 00:00:00 -5.9 2 Sudoeste 4 Sudoeste 0 -- -- 93
2021-01-12 23:00:00 -5.5 2 Sur 4 Sur 0 -- -- 92
2021-01-12 22:00:00 -4.9 2 Sur 3 Sur 0 -- -- 89
2021-01-12 21:00:00 -3.9 0 Calma 4 Sur 0 -- -- 86
2021-01-12 20:00:00 -2.8 2 Sur 5 Sur 0 -- -- 82
2021-01-12 19:00:00 -0.3 3 Sur 4 Sur 0 -- -- 73
2021-01-12 18:00:00 5.8 0 Calma 8 Norte 0 -- -- 54
2021-01-12 17:00:00 8 4 Norte 12 Noroeste 0 -- -- 46
2021-01-12 16:00:00 7.8 5 Norte 14 Norte 0 -- -- 46
2021-01-12 15:00:00 7.1 7 Norte 16 Norte 0 -- -- 45
2021-01-12 14:00:00 7.9 7 Norte 14 Norte 0 -- -- 38
2021-01-12 13:00:00 7.7 3 Nordeste 8 Nordeste 0 -- -- 42
2021-01-12 12:00:00 4.2 0 Calma 7 Nordeste 0 -- -- 52
2021-01-12 11:00:00 -0.7 0 Calma 2 Sur 0 -- -- 88
2021-01-12 10:00:00 -6.7 0 Calma 3 Sur 0 -- -- 99
2021-01-12 09:00:00 -8.7 0 Calma 2 Sur 0 -- -- 95
2021-01-12 08:00:00 -8.6 0 Calma 3 Sur 0 -- -- 95
2021-01-12 07:00:00 -8.4 0 Calma 4 Sudoeste 0 -- -- 96
2021-01-12 06:00:00 -8.5 0 Calma 3 Sudoeste 0 -- -- 96
2021-01-12 05:00:00 -8.8 0 Calma 3 Sudoeste 0 -- -- 95
2021-01-12 04:00:00 -8.4 0 Calma 3 Sudoeste 0 -- -- 94
2021-01-12 03:00:00 -8.4 0 Calma 5 Sur 0 -- -- 94
2021-01-12 02:00:00 -7.9 2 Sur 3 Sur 0 -- -- 92
2021-01-12 01:00:00 -7.4 2 Sur 4 Sur 0 -- -- 92
2021-01-12 00:00:00 -6.6 0 Calma 4 Sur 0 -- -- 90
2021-01-11 23:00:00 -5.6 0 Calma 5 Sur 0 -- -- 88
2021-01-11 22:00:00 -3.1 0 Calma 10 Norte 0 -- -- 80
2021-01-11 21:00:00 -2.6 2 Norte 5 Noroeste 0 -- -- 80
2021-01-11 20:00:00 -1.3 0 Calma 18 Norte 0 -- -- 76
2021-01-11 19:00:00 -0.4 5 Norte 20 Norte 0 -- -- 72
2021-01-11 18:00:00 1.2 9 Norte 25 Norte 0 -- -- 65
2021-01-11 17:00:00 2.6 10 Norte 31 Norte 0 -- -- 58
2021-01-11 16:00:00 3 12 Norte 32 Norte 0 -- -- 56
2021-01-11 15:00:00 3.1 13 Norte 33 Nordeste 0 -- -- 56
2021-01-11 14:00:00 3.3 8 Norte 32 Noroeste 0 -- -- 55
2021-01-11 13:00:00 3.3 11 Nordeste 38 Norte 0 -- -- 50
2021-01-11 12:00:00 2.4 11 Norte 30 Nordeste 0 -- -- 56
2021-01-11 11:00:00 0.7 6 Norte 20 Norte 0 -- -- 65
2021-01-11 10:00:00 -1.1 6 Norte 30 Noroeste 0 -- -- 73
2021-01-11 09:00:00 -2.1 6 Norte 24 Noroeste 0 -- -- 78
2021-01-11 08:00:00 -2 6 Norte 22 Norte 0 -- -- 78
2021-01-11 07:00:00 -1.5 7 Norte 23 Norte 0 -- -- 75
2021-01-11 06:00:00 -1.6 5 Norte 19 Norte 0 -- -- 75
2021-01-11 05:00:00 -1.7 5 Norte 22 Norte 0 -- -- 75
2021-01-11 04:00:00 -1.5 7 Norte 24 Noroeste 0 -- -- 73
2021-01-11 03:00:00 -1.8 6 Norte 24 Norte 0 -- -- 75
2021-01-11 02:00:00 -1.7 9 Norte 30 Norte 0 -- -- 76
2021-01-11 01:00:00 -1.7 7 Norte 27 Norte 0 -- -- 78
2021-01-11 00:00:00 -1.7 8 Norte 31 Norte 0 -- -- 81
2021-01-10 23:00:00 -1.2 6 Norte 21 Nordeste 0 -- -- 81
2021-01-10 22:00:00 -1.1 8 Norte 23 Noroeste 0 -- -- 87
2021-01-10 21:00:00 -0.7 6 Norte 19 Norte 0 -- -- 84
2021-01-10 20:00:00 -0.5 9 Norte 21 Nordeste 0 -- -- 82
2021-01-10 19:00:00 -0.1 8 Norte 26 Noroeste 0 -- -- 80
2021-01-10 18:00:00 0.9 8 Norte 29 Norte 0 -- -- 75
2021-01-10 17:00:00 1.7 10 Norte 38 Norte 0 -- -- 72
2021-01-10 16:00:00 2.7 9 Norte 32 Norte 0 -- -- 67
2021-01-10 15:00:00 2 7 Norte 29 Este 0 -- -- 72
2021-01-10 14:00:00 1.3 9 Nordeste 32 Norte 0 -- -- 78
2021-01-10 13:00:00 0.7 7 Nordeste 30 Norte 0 -- -- 82
2021-01-10 12:00:00 0.6 10 Norte 26 Nordeste 0 -- -- 84
2021-01-10 11:00:00 -0.1 6 Norte 27 Norte 0 -- -- 87
2021-01-10 10:00:00 -1.2 5 Norte 21 Norte 0 -- -- 92
2021-01-10 09:00:00 -1.9 9 Norte 24 Norte 0 -- -- 95
2021-01-10 08:00:00 -2.2 3 Norte 15 Norte 0 -- -- 96
2021-01-10 07:00:00 -2.5 4 Norte 17 Nordeste 0 -- -- 97
2021-01-10 06:00:00 -2.4 4 Norte 17 Norte 0 -- -- 96
2021-01-10 05:00:00 -2.2 8 Norte 22 Norte 0 -- -- 97
2021-01-10 04:00:00 -2.4 4 Norte 12 Norte 0 -- -- 97
2021-01-10 03:00:00 -2.3 3 Norte 10 Norte 0 -- -- 96
2021-01-10 02:00:00 -2.3 3 Norte 7 Norte 0 -- -- 94
2021-01-10 01:00:00 -2.3 3 Norte 12 Norte 0 -- -- 94
2021-01-10 00:00:00 -2.2 3 Norte 10 Norte 0 -- -- 94
2021-01-09 23:00:00 -2.1 3 Norte 15 Norte 0 -- -- 93
2021-01-09 22:00:00 -2 6 Norte 16 Norte 0 -- -- 93
2021-01-09 21:00:00 -1.8 5 Norte 21 Norte 0 -- -- 94
2021-01-09 20:00:00 -1.7 6 Norte 24 Nordeste 0 -- -- 91
2021-01-09 19:00:00 -1.5 8 Norte 29 Norte 0 -- -- 90
2021-01-09 18:00:00 -1.4 9 Norte 31 Norte 0 -- -- 90
2021-01-09 17:00:00 -1.4 9 Norte 32 Norte 0 -- -- 88
2021-01-09 16:00:00 -1.5 8 Norte 29 Norte 0 -- -- 88
2021-01-09 15:00:00 -1.4 10 Norte 32 Norte 0 -- -- 85
2021-01-09 14:00:00 -1.6 8 Norte 33 Norte 0 -- -- 85
2021-01-09 13:00:00 -2 9 Norte 35 Norte 0 -- -- 87
2021-01-09 12:00:00 -2.3 10 Norte 34 Este 0 -- -- 93
2021-01-09 11:00:00 -2.4 9 Norte 32 Norte 0 -- -- 93
2021-01-09 10:00:00 -2.7 7 Norte 27 Norte 0 -- -- 95
2021-01-09 09:00:00 -2.9 8 Norte 31 Norte 0 -- -- 97
2021-01-09 08:00:00 -3 7 Norte 28 Norte 0 -- -- 97
2021-01-09 07:00:00 -3 10 Norte 28 Norte 0 -- -- 96
2021-01-09 06:00:00 -2.8 11 Norte 24 Norte 0 -- -- 94
2021-01-09 05:00:00 -2.6 12 Norte 26 Norte 0 -- -- 92
2021-01-09 04:00:00 -2.2 10 Norte 29 Norte 0 -- -- 90
2021-01-09 03:00:00 -1.9 10 Norte 28 Norte 0 -- -- 88
2021-01-09 02:00:00 -1.7 8 Norte 23 Norte 0 -- -- 89
2021-01-09 01:00:00 -1.7 6 Norte 24 Norte 0 -- -- 88
2021-01-09 00:00:00 -1.6 7 Norte 23 Nordeste 0 -- -- 85
2021-01-08 23:00:00 -1.5 5 Norte 21 Norte 0 -- -- 83
2021-01-08 22:00:00 -1.3 7 Norte 23 Norte 0 -- -- 80
2021-01-08 21:00:00 -1.2 6 Norte 24 Norte 0 -- -- 76
2021-01-08 20:00:00 -1.3 6 Norte 24 Norte 0 -- -- 75
2021-01-08 19:00:00 -1.4 5 Norte 21 Norte 0 -- -- 75
2021-01-08 18:00:00 -0.8 6 Norte 28 Norte 0 -- -- 73
2021-01-08 17:00:00 -0.6 8 Norte 24 Norte 0 -- -- 76
2021-01-08 16:00:00 -0.2 9 Norte 26 Noroeste 0 -- -- 70
2021-01-08 15:00:00 0.2 9 Norte 28 Norte 0 -- -- 71
2021-01-08 14:00:00 -1 6 Norte 24 Norte 0 -- -- 76
2021-01-08 13:00:00 -1.3 9 Norte 22 Norte 0 -- -- 81
2021-01-08 12:00:00 -3.2 5 Norte 16 Norte 0 -- -- 91
2021-01-08 11:00:00 -4.2 2 Norte 11 Norte 0 -- -- 94
2021-01-08 10:00:00 -5 3 Norte 11 Norte 0 -- -- 96
2021-01-08 09:00:00 -5.8 2 Norte 10 Norte 0 -- -- 98
2021-01-08 08:00:00 -6.6 0 Calma 3 Norte 0 -- -- 97
2021-01-08 07:00:00 -7.2 0 Calma 2 Sudoeste 0 -- -- 97
2021-01-08 06:00:00 -7.8 0 Calma 2 Sur 0 -- -- 97
2021-01-08 05:00:00 -8.7 0 Calma 2 Sur 0 -- -- 96
2021-01-08 04:00:00 -9.1 0 Calma 2 Sur 0 -- -- 95
2021-01-08 03:00:00 -8.8 0 Calma 3 Sur 0 -- -- 94
2021-01-08 02:00:00 -8.1 0 Calma 2 Sur 0 -- -- 95
2021-01-08 01:00:00 -7.5 0 Calma 3 Sur 0 -- -- 94
2021-01-08 00:00:00 -6.9 0 Calma 3 Sur 0 -- -- 93
2021-01-07 23:00:00 -6 0 Calma 2 Sur 0 -- -- 92
2021-01-07 22:00:00 -5.4 0 Calma 4 Sur 0 -- -- 91
2021-01-07 21:00:00 -4.5 0 Calma 3 Sur 0 -- -- 89
2021-01-07 20:00:00 -3.2 2 Sur 4 Sur 0 -- -- 84
2021-01-07 19:00:00 -1.4 3 Sur 4 Sur 0 -- -- 77
2021-01-07 18:00:00 2.5 0 Calma 12 Norte 0 -- -- 65
2021-01-07 17:00:00 3.8 6 Norte 14 Norte 0 -- -- 60
2021-01-07 16:00:00 3.8 4 Norte 12 Noroeste 0 -- -- 57
2021-01-07 15:00:00 3.1 5 Norte 14 Norte 0 -- -- 61
2021-01-07 14:00:00 2.6 5 Norte 11 Norte 0 -- -- 66
2021-01-07 13:00:00 1.4 3 Nordeste 8 Nordeste 0 -- -- 72
2021-01-07 12:00:00 -0.7 0 Calma 5 Este 0 -- -- 82
2021-01-07 11:00:00 -3 0 Calma 2 Sur 0 -- -- 91
2021-01-07 10:00:00 -6 0 Calma 2 Sudeste 0 -- -- 96
2021-01-07 09:00:00 -5.8 0 Calma 2 Sur 0 -- -- 97
2021-01-07 08:00:00 -6.2 0 Calma 2 Sur 0 -- -- 97
2021-01-07 07:00:00 -6.7 2 Sur 4 Sur 0 -- -- 95
2021-01-07 06:00:00 -5.8 0 Calma 4 Sur 0 -- -- 95
2021-01-07 05:00:00 -5.3 0 Calma 2 Sur 0 -- -- 96
2021-01-07 04:00:00 -5.4 0 Calma 4 Sur 0 -- -- 96
2021-01-07 03:00:00 -5.3 0 Calma 3 Sur 0 -- -- 95
2021-01-07 02:00:00 -5.6 0 Calma 4 Sur 0 -- -- 95
2021-01-07 01:00:00 -6.4 0 Calma 3 Sur 0 -- -- 94
2021-01-07 00:00:00 -5.6 0 Calma 3 Sur 0 -- -- 91
2021-01-06 23:00:00 -4.5 0 Calma 3 Sur 0 -- -- 91
2021-01-06 22:00:00 -4.2 0 Calma 3 Sur 0 -- -- 90
2021-01-06 21:00:00 -3.7 0 Calma 2 Sur 0 -- -- 88
2021-01-06 20:00:00 -2.4 0 Calma 4 Sur 0 -- -- 83
2021-01-06 19:00:00 -1.2 3 Sur 5 Sur 0 -- -- 78
2021-01-06 18:00:00 3 2 Este 12 Nordeste 0 -- -- 56
2021-01-06 17:00:00 4.8 4 Norte 19 Norte 0 -- -- 49
2021-01-06 16:00:00 5.2 5 Norte 16 Norte 0 -- -- 47
2021-01-06 15:00:00 4.9 8 Norte 16 Norte 0 -- -- 45
2021-01-06 14:00:00 4.5 5 Noroeste 11 Norte 0 -- -- 50
2021-01-06 13:00:00 3.9 3 Este 10 Nordeste 0 -- -- 54
2021-01-06 12:00:00 1.7 3 Norte 9 Nordeste 0 -- -- 73
2021-01-06 11:00:00 -1.5 0 Calma 3 Sur 0 -- -- 93
2021-01-06 10:00:00 -6.9 0 Calma 2 Sur 0 -- -- 100
2021-01-06 09:00:00 -8.8 2 Sur 2 Sur 0 -- -- 96
2021-01-06 08:00:00 -8.6 0 Calma 2 Sudoeste 0 -- -- 95
2021-01-06 07:00:00 -8.3 0 Calma 2 Sudoeste 0 -- -- 96
2021-01-06 06:00:00 -8.1 2 Sur 4 Sur 0 -- -- 96
2021-01-06 05:00:00 -8.1 2 Sur 3 Sur 0 -- -- 95
2021-01-06 04:00:00 -7.6 0 Calma 2 Sudoeste 0 -- -- 97
2021-01-06 03:00:00 -7.6 2 Sur 3 Sur 0 -- -- 95
2021-01-06 02:00:00 -7.2 2 Sur 3 Sur 0 -- -- 95
2021-01-06 01:00:00 -6.9 2 Sur 4 Sur 0 -- -- 94
2021-01-06 00:00:00 -6.6 0 Calma 3 Sur 0 -- -- 94
2021-01-05 23:00:00 -6.1 0 Calma 2 Sur 0 -- -- 93
2021-01-05 22:00:00 -5.6 2 Sur 3 Sudoeste 0 -- -- 91
2021-01-05 21:00:00 -4.7 0 Calma 4 Sur 0 -- -- 88
2021-01-05 20:00:00 -3.4 2 Sur 4 Sur 0 -- -- 85
2021-01-05 19:00:00 -1.4 0 Calma 4 Sudoeste 0 -- -- 79
2021-01-05 18:00:00 3.1 0 Calma 8 Sur 0 -- -- 61
2021-01-05 17:00:00 5.4 5 Sudoeste 13 Sur 0 -- -- 53
2021-01-05 16:00:00 6 3 Sudoeste 8 Oeste 0 -- -- 55
2021-01-05 15:00:00 5.4 0 Calma 9 Sur 0 -- -- 52
2021-01-05 14:00:00 4.7 3 Sudeste 12 Sudeste 0 -- -- 55
2021-01-05 13:00:00 4 3 Sudeste 7 Norte 0 -- -- 63
2021-01-05 12:00:00 1.7 0 Calma 4 Este 0 -- -- 82
2021-01-05 11:00:00 -1.3 0 Calma 2 Sur 0 -- -- 96
2021-01-05 10:00:00 -6.7 0 Calma 2 Sur 0 -- -- 100
2021-01-05 09:00:00 -8.6 0 Calma 3 Sur 0 -- -- 96
2021-01-05 08:00:00 -8.2 0 Calma 3 Sudoeste 0 -- -- 96
2021-01-05 07:00:00 -8 0 Calma 3 Sur 0 -- -- 97
2021-01-05 06:00:00 -7.6 0 Calma 3 Sur 0 -- -- 97
2021-01-05 05:00:00 -7.2 0 Calma 3 Sur 0 -- -- 97
2021-01-05 04:00:00 -6.9 2 Sur 3 Sur 0 -- -- 97
2021-01-05 03:00:00 -6.4 0 Calma 4 Sur 0 -- -- 97
2021-01-05 02:00:00 -6.1 2 Sur 4 Sur 0 -- -- 96
2021-01-05 01:00:00 -5.5 0 Calma 6 Sudoeste 0 -- -- 95
2021-01-05 00:00:00 -4.8 0 Calma 4 Sur 0 -- -- 96
2021-01-04 23:00:00 -4.3 0 Calma 3 Sur 0 -- -- 94
2021-01-04 22:00:00 -3.6 2 Sur 4 Sudoeste 0 -- -- 93
2021-01-04 21:00:00 -3.2 0 Calma 4 Sur 0 -- -- 90
2021-01-04 20:00:00 -1.8 2 Sur 5 Sur 0 -- -- 86
2021-01-04 19:00:00 0.3 0 Calma 4 Norte 0 -- -- 79
2021-01-04 18:00:00 2.7 2 Norte 14 Oeste 0 -- -- 68
2021-01-04 17:00:00 4.2 5 Noroeste 17 Noroeste 0 -- -- 61
2021-01-04 16:00:00 4.6 8 Noroeste 21 Noroeste 0 -- -- 61
2021-01-04 15:00:00 4.3 9 Noroeste 21 Norte 0 -- -- 56
2021-01-04 14:00:00 3.8 6 Oeste 18 Oeste 0 -- -- 65
2021-01-04 13:00:00 2.9 8 Noroeste 16 Oeste 0 -- -- 71
2021-01-04 12:00:00 1.9 5 Noroeste 11 Noroeste 0 -- -- 72
2021-01-04 11:00:00 -0.1 0 Calma 4 Noroeste 0 -- -- 98
2021-01-04 10:00:00 -1.5 2 Sur 6 Noroeste 0 -- -- 97
2021-01-04 09:00:00 -1.2 0 Calma 8 Noroeste 0 -- -- 94
2021-01-04 08:00:00 0.5 0 Calma 9 Oeste 0 -- -- 95
2021-01-04 07:00:00 0.7 3 Noroeste 6 Oeste 0 -- -- 97
2021-01-04 06:00:00 1.1 2 Noroeste 10 Oeste 0 -- -- 95
2021-01-04 05:00:00 1 0 Calma 2 Oeste 0 -- -- 96
2021-01-04 04:00:00 1.2 0 Calma 3 Oeste 0 -- -- 94
2021-01-04 03:00:00 1.1 0 Calma 8 Oeste 0 -- -- 93
2021-01-04 02:00:00 1 4 Oeste 17 Noroeste 0 -- -- 92
2021-01-04 01:00:00 1.2 6 Noroeste 22 Noroeste 0 -- -- 89
2021-01-04 00:00:00 1.1 8 Noroeste 25 Oeste 0 -- -- 87
2021-01-03 23:00:00 -1 0 Calma 5 Sudoeste 0 -- -- 94
2021-01-03 22:00:00 0.1 2 Norte 11 Noroeste 0 -- -- 89
2021-01-03 21:00:00 -1.1 4 Noroeste 9 Noroeste 0 -- -- 96
2021-01-03 20:00:00 -1.2 0 Calma 3 Sudoeste 0 -- -- 86
2021-01-03 19:00:00 1.3 0 Calma 7 Sudoeste 0 -- -- 79
2021-01-03 18:00:00 3.3 4 Oeste 19 Noroeste 0 -- -- 70
2021-01-03 17:00:00 4.6 10 Noroeste 20 Noroeste 0 -- -- 60
2021-01-03 16:00:00 4.4 7 Noroeste 28 Noroeste 0 -- -- 62
2021-01-03 15:00:00 4.7 13 Noroeste 26 Noroeste 0 -- -- 64
2021-01-03 14:00:00 4.2 10 Noroeste 22 Noroeste 0 -- -- 71
2021-01-03 13:00:00 3.5 11 Norte 23 Noroeste 0 -- -- 74
2021-01-03 12:00:00 2.2 12 Norte 23 Norte 0 -- -- 81
2021-01-03 11:00:00 -0.6 0 Calma 4 Nordeste 0 -- -- 98
2021-01-03 10:00:00 -5.5 0 Calma 2 Sur 0 -- -- 100
2021-01-03 09:00:00 -7.2 0 Calma 2 Sur 0 -- -- 98
2021-01-03 08:00:00 -7 0 Calma 2 Sur 0 -- -- 97
2021-01-03 07:00:00 -6.7 0 Calma 3 Sur 0 -- -- 98
2021-01-03 06:00:00 -6.4 0 Calma 3 Sur 0 -- -- 98
2021-01-03 05:00:00 -6.4 0 Calma 2 Sudoeste 0 -- -- 98
2021-01-03 04:00:00 -6.2 0 Calma 2 Sur 0 -- -- 97
2021-01-03 03:00:00 -5.9 2 Sur 3 Sur 0 -- -- 97
2021-01-03 02:00:00 -5 0 Calma 3 Sudeste 0 -- -- 95
2021-01-03 01:00:00 -3.8 0 Calma 3 Noroeste 0 -- -- 96
2021-01-03 00:00:00 -3.8 0 Calma 5 Noroeste 0 -- -- 100
2021-01-02 23:00:00 -4.8 0 Calma 2 Sur 0 -- -- 95
2021-01-02 22:00:00 -4.3 0 Calma 3 Sur 0 -- -- 93
2021-01-02 21:00:00 -3.7 2 Sur 3 Sur 0 -- -- 91
2021-01-02 20:00:00 -2.5 0 Calma 3 Sur 0 -- -- 87
2021-01-02 19:00:00 -0.3 3 Sur 9 Norte 0 -- -- 78
2021-01-02 18:00:00 2.5 5 Norte 19 Norte 0 -- -- 65
2021-01-02 17:00:00 4.1 10 Norte 22 Noroeste 0 -- -- 58
2021-01-02 16:00:00 4 9 Norte 25 Norte 0 -- -- 62
2021-01-02 15:00:00 3.7 9 Norte 25 Noroeste 0 -- -- 66
2021-01-02 14:00:00 2.9 9 Norte 23 Norte 0 -- -- 71